createdAt,value
2023-02-07T00:01:31.378Z,4.33
2023-02-07T00:03:59.791Z,3.70
2023-02-07T00:06:34.698Z,3.00
2023-02-07T00:09:05.337Z,3.40
2023-02-07T00:11:33.363Z,3.23
2023-02-07T00:14:00.995Z,2.83
2023-02-07T00:16:29.091Z,3.97
2023-02-07T00:18:59.727Z,4.03
2023-02-07T00:21:28.975Z,4.63
2023-02-07T00:23:57.402Z,3.93
2023-02-07T00:26:27.226Z,3.80
2023-02-07T00:28:56.123Z,5.23
2023-02-07T00:31:30.631Z,4.03
2023-02-07T00:34:03.127Z,4.33
2023-02-07T00:36:33.640Z,4.72
2023-02-07T00:39:04.148Z,4.27
2023-02-07T00:41:32.454Z,4.80
2023-02-07T00:44:01.134Z,5.07
2023-02-07T00:46:30.770Z,5.83
2023-02-07T00:48:58.407Z,5.80
2023-02-07T00:51:26.285Z,4.80
2023-02-07T00:53:55.167Z,4.13
2023-02-07T00:56:24.992Z,6.10
2023-02-07T00:58:53.013Z,5.10
2023-02-07T01:01:20.880Z,5.50
2023-02-07T01:03:48.728Z,5.00
2023-02-07T01:06:16.643Z,4.07
2023-02-07T01:08:44.334Z,4.60
2023-02-07T01:11:16.595Z,6.60
2023-02-07T01:13:45.039Z,5.43
2023-02-07T01:16:21.246Z,5.93
2023-02-07T01:18:50.166Z,6.33
2023-02-07T01:21:20.251Z,6.13
2023-02-07T01:23:48.268Z,6.07
2023-02-07T01:26:15.860Z,5.50
2023-02-07T01:28:43.575Z,5.80
2023-02-07T01:31:14.183Z,5.63
2023-02-07T01:33:41.893Z,4.57
2023-02-07T01:36:12.051Z,5.80
2023-02-07T01:38:39.854Z,5.23
2023-02-07T01:41:08.272Z,7.70
2023-02-07T01:43:36.072Z,6.33
2023-02-07T01:46:03.818Z,4.57
2023-02-07T01:48:36.995Z,3.80
2023-02-07T01:51:07.932Z,5.37
2023-02-07T01:53:38.150Z,5.50
2023-02-07T01:56:17.675Z,5.63
2023-02-07T01:58:54.491Z,6.07
2023-02-07T02:01:25.348Z,6.73
2023-02-07T02:03:56.296Z,6.03
2023-02-07T02:06:28.372Z,5.93
2023-02-07T02:08:59.243Z,6.80
2023-02-07T02:11:40.956Z,7.03
2023-02-07T02:14:23.686Z,7.80
2023-02-07T02:17:07.705Z,8.52
2023-02-07T02:19:53.929Z,11.10
2023-02-07T02:22:53.938Z,8.53
2023-02-07T02:25:57.775Z,6.77
2023-02-07T02:28:44.087Z,5.07
2023-02-07T02:31:11.588Z,3.60
2023-02-07T02:34:05.807Z,2.80
2023-02-07T02:37:01.283Z,4.33
2023-02-07T02:39:55.285Z,3.70
2023-02-07T02:42:36.046Z,3.33
2023-02-07T02:45:40.660Z,3.33
2023-02-07T02:48:11.496Z,4.77
2023-02-07T02:50:39.844Z,3.10
2023-02-07T02:53:07.447Z,3.57
2023-02-07T02:55:57.400Z,3.40
2023-02-07T02:58:47.314Z,4.27
2023-02-07T03:01:22.029Z,3.93
2023-02-07T03:04:20.282Z,3.67
2023-02-07T03:06:56.885Z,3.00
2023-02-07T03:09:44.620Z,3.73
2023-02-07T03:12:29.040Z,6.57
2023-02-07T03:15:08.575Z,10.20
2023-02-07T03:17:43.516Z,8.73
2023-02-07T03:20:19.621Z,7.00
2023-02-07T03:22:48.872Z,8.10
2023-02-07T03:25:18.768Z,7.53
2023-02-07T03:27:48.599Z,7.90
2023-02-07T03:30:19.506Z,8.00
2023-02-07T03:32:56.588Z,7.90
2023-02-07T03:35:53.098Z,8.93
2023-02-07T03:38:21.741Z,6.17
2023-02-07T03:40:59.910Z,6.30
2023-02-07T03:43:31.297Z,5.27
2023-02-07T03:45:59.598Z,5.57
2023-02-07T03:48:27.294Z,5.70
2023-02-07T03:50:55.545Z,4.93
2023-02-07T03:53:23.357Z,5.83
2023-02-07T03:55:52.935Z,4.97
2023-02-07T03:58:20.735Z,6.23
2023-02-07T04:00:48.594Z,8.23
2023-02-07T04:03:18.021Z,10.40
2023-02-07T04:05:46.803Z,7.87
2023-02-07T04:08:15.135Z,6.10
2023-02-07T04:10:42.833Z,13.97
2023-02-07T04:13:10.472Z,10.10
2023-02-07T04:15:38.810Z,8.60
2023-02-07T04:18:06.592Z,7.07
2023-02-07T04:20:34.135Z,7.10
2023-02-07T04:23:01.867Z,8.00
2023-02-07T04:25:29.548Z,6.47
2023-02-07T04:27:57.604Z,9.50
2023-02-07T04:30:26.709Z,12.70
2023-02-07T04:32:54.421Z,10.23
2023-02-07T04:35:22.156Z,7.53
2023-02-07T04:37:49.804Z,14.67
2023-02-07T04:40:17.502Z,7.90
2023-02-07T04:42:45.191Z,7.40
2023-02-07T04:45:13.700Z,5.73
2023-02-07T04:47:41.431Z,5.33
2023-02-07T04:50:09.403Z,4.67
2023-02-07T04:52:37.505Z,4.47
2023-02-07T04:55:05.369Z,5.37
2023-02-07T04:57:33.070Z,6.23
2023-02-07T05:00:00.891Z,6.90
2023-02-07T05:02:28.451Z,8.93
2023-02-07T05:04:56.279Z,7.03
2023-02-07T05:07:23.890Z,5.10
2023-02-07T05:09:51.493Z,5.40
2023-02-07T05:12:19.291Z,5.13
2023-02-07T05:14:46.798Z,11.60
2023-02-07T05:17:14.781Z,11.20
2023-02-07T05:19:43.385Z,19.53
2023-02-07T05:22:11.041Z,15.47
2023-02-07T05:24:38.821Z,17.40
2023-02-07T05:27:06.356Z,14.47
2023-02-07T05:29:34.029Z,12.97
2023-02-07T05:32:20.188Z,10.20
2023-02-07T05:34:47.725Z,9.23
2023-02-07T05:37:15.366Z,12.37
2023-02-07T05:39:42.928Z,13.50
2023-02-07T05:42:10.494Z,13.80
2023-02-07T05:44:38.042Z,12.23
2023-02-07T05:47:05.714Z,10.60
2023-02-07T05:49:33.729Z,9.17
2023-02-07T05:52:01.432Z,12.07
2023-02-07T05:54:29.370Z,9.07
2023-02-07T05:56:57.069Z,9.40
2023-02-07T05:59:24.983Z,9.77
2023-02-07T06:01:52.564Z,11.43
2023-02-07T06:04:20.176Z,9.53
2023-02-07T06:06:47.818Z,12.23
2023-02-07T06:09:15.522Z,11.27
2023-02-07T06:11:43.082Z,12.40
2023-02-07T06:14:10.759Z,11.07
2023-02-07T06:16:38.315Z,11.70
2023-02-07T06:19:05.948Z,12.03
2023-02-07T06:21:45.676Z,13.70
2023-02-07T06:24:14.138Z,12.70
2023-02-07T06:26:41.984Z,11.93
2023-02-07T06:29:09.623Z,15.00
2023-02-07T06:31:37.313Z,14.37
2023-02-07T06:34:04.985Z,15.57
2023-02-07T06:36:33.657Z,11.47
2023-02-07T06:39:01.566Z,11.40
2023-02-07T06:41:29.328Z,10.33
2023-02-07T06:43:57.075Z,16.47
2023-02-07T06:46:24.725Z,21.50
2023-02-07T06:48:52.328Z,23.63
2023-02-07T06:51:20.016Z,25.77
2023-02-07T06:53:47.836Z,27.37
2023-02-07T06:56:17.737Z,22.30
2023-02-07T06:58:46.142Z,19.77
2023-02-07T07:01:20.106Z,17.03
2023-02-07T07:03:48.079Z,17.73
2023-02-07T07:06:15.691Z,10.73
2023-02-07T07:08:43.325Z,7.50
2023-02-07T07:11:10.949Z,8.70
2023-02-07T07:13:38.609Z,9.27
2023-02-07T07:16:06.413Z,16.83
2023-02-07T07:18:34.099Z,17.63
2023-02-07T07:21:01.651Z,19.50
2023-02-07T07:23:29.236Z,17.57
2023-02-07T07:25:56.911Z,16.33
2023-02-07T07:28:24.624Z,25.80
2023-02-07T07:30:52.257Z,35.77
2023-02-07T07:33:19.930Z,27.40
2023-02-07T07:35:47.964Z,26.40
2023-02-07T07:38:15.605Z,28.80
2023-02-07T07:40:43.328Z,31.90
2023-02-07T07:43:10.930Z,27.77
2023-02-07T07:45:51.747Z,26.20
2023-02-07T07:48:19.809Z,26.10
2023-02-07T07:50:47.696Z,20.33
2023-02-07T07:53:15.971Z,17.57
2023-02-07T07:55:43.540Z,16.17
2023-02-07T07:58:11.186Z,15.77
2023-02-07T08:00:38.987Z,17.53
2023-02-07T08:03:06.856Z,21.23
2023-02-07T08:05:34.459Z,15.17
2023-02-07T08:08:02.134Z,15.80
2023-02-07T08:10:29.788Z,15.20
2023-02-07T08:12:58.158Z,15.13
2023-02-07T08:15:25.905Z,17.20
2023-02-07T08:17:53.442Z,17.47
2023-02-07T08:20:21.163Z,13.50
2023-02-07T08:22:48.817Z,13.90
2023-02-07T08:25:16.554Z,13.73
2023-02-07T08:27:44.225Z,13.03
2023-02-07T08:30:13.716Z,10.63
2023-02-07T08:32:42.839Z,9.97
2023-02-07T08:35:10.678Z,13.20
2023-02-07T08:37:39.228Z,12.30
2023-02-07T08:40:07.500Z,11.57
2023-02-07T08:42:35.211Z,11.07
2023-02-07T08:45:04.772Z,12.07
2023-02-07T08:47:32.777Z,14.50
2023-02-07T08:50:01.777Z,14.30
2023-02-07T08:52:29.892Z,12.63
2023-02-07T08:54:57.522Z,13.63
2023-02-07T08:57:25.886Z,12.13
2023-02-07T08:59:54.320Z,10.80
2023-02-07T09:02:22.242Z,8.57
2023-02-07T09:04:51.813Z,9.57
2023-02-07T09:07:20.049Z,8.47
2023-02-07T09:09:47.636Z,8.87
2023-02-07T09:12:15.603Z,10.13
2023-02-07T09:14:43.421Z,10.27
2023-02-07T09:17:11.063Z,10.83
2023-02-07T09:19:38.782Z,25.67
2023-02-07T09:22:06.524Z,16.67
2023-02-07T09:24:34.124Z,15.43
2023-02-07T09:27:02.406Z,15.63
2023-02-07T09:29:30.178Z,13.43
2023-02-07T09:31:57.831Z,13.93
2023-02-07T09:34:25.794Z,14.03
2023-02-07T09:36:53.528Z,14.50
2023-02-07T09:39:21.242Z,11.67
2023-02-07T09:41:59.689Z,11.13
2023-02-07T09:45:01.162Z,11.17
2023-02-07T09:47:30.172Z,9.13
2023-02-07T09:50:06.699Z,9.07
2023-02-07T09:52:42.448Z,10.93
2023-02-07T09:55:33.050Z,11.83
2023-02-07T09:58:27.146Z,10.17
2023-02-07T10:01:10.316Z,9.20
2023-02-07T10:03:58.301Z,12.47
2023-02-07T10:06:28.079Z,11.37
2023-02-07T10:08:59.884Z,10.80
2023-02-07T10:11:27.579Z,10.53
2023-02-07T10:14:24.298Z,10.17
2023-02-07T10:17:02.123Z,10.53
2023-02-07T10:19:35.330Z,8.83
2023-02-07T10:22:33.620Z,6.67
2023-02-07T10:25:28.132Z,8.73
2023-02-07T10:28:14.939Z,9.47
2023-02-07T10:30:58.259Z,9.43
2023-02-07T10:33:34.809Z,8.90
2023-02-07T10:36:06.305Z,9.97
2023-02-07T10:38:41.916Z,10.47
2023-02-07T10:41:09.642Z,10.23
2023-02-07T10:43:38.833Z,11.07
2023-02-07T10:46:09.496Z,10.23
2023-02-07T10:48:38.745Z,10.20
2023-02-07T10:51:26.300Z,10.80
2023-02-07T10:54:09.559Z,9.33
2023-02-07T10:56:46.216Z,10.67
2023-02-07T10:59:46.198Z,9.50
2023-02-07T11:02:29.354Z,12.90
2023-02-07T11:07:27.493Z,9.27
2023-02-07T11:10:14.556Z,8.00
2023-02-07T11:12:53.977Z,10.60
2023-02-07T11:15:30.255Z,10.80
2023-02-07T11:17:58.716Z,10.17
2023-02-07T11:20:40.144Z,8.20
2023-02-07T11:23:14.678Z,9.57
2023-02-07T11:25:44.649Z,10.63
2023-02-07T11:28:38.700Z,11.03
2023-02-07T11:31:10.006Z,12.40
2023-02-07T11:33:37.996Z,12.23
2023-02-07T11:36:19.043Z,14.83
2023-02-07T11:38:50.349Z,9.80
2023-02-07T11:41:21.499Z,11.87
2023-02-07T11:44:01.513Z,10.27
2023-02-07T11:46:41.669Z,10.27
2023-02-07T11:49:25.168Z,10.90
2023-02-07T11:51:56.580Z,8.23
2023-02-07T11:54:24.643Z,11.00
2023-02-07T11:56:55.876Z,10.53
2023-02-07T11:59:28.242Z,8.70
2023-02-07T12:01:59.884Z,10.93
2023-02-07T12:04:35.675Z,9.97
2023-02-07T12:07:18.610Z,10.43
2023-02-07T12:09:57.465Z,9.48
2023-02-07T12:12:41.027Z,8.93
2023-02-07T12:15:18.198Z,8.43
2023-02-07T12:18:01.237Z,9.27
2023-02-07T12:21:02.397Z,8.75
2023-02-07T12:23:43.727Z,7.67
2023-02-07T12:26:24.856Z,8.90
2023-02-07T12:29:18.607Z,7.10
2023-02-07T12:32:04.913Z,7.13
2023-02-07T12:34:50.594Z,7.93
2023-02-07T12:37:28.056Z,7.23
2023-02-07T12:40:02.608Z,7.73
2023-02-07T12:42:33.623Z,7.93
2023-02-07T12:45:03.011Z,7.77
2023-02-07T12:47:55.854Z,8.17
2023-02-07T12:50:23.469Z,9.67
2023-02-07T12:53:09.122Z,9.40
2023-02-07T12:55:55.357Z,7.17
2023-02-07T12:58:25.864Z,7.83
2023-02-07T13:01:17.820Z,7.07
2023-02-07T13:04:03.539Z,6.10
2023-02-07T13:07:12.946Z,6.03
2023-02-07T13:09:49.580Z,7.87
2023-02-07T13:12:44.651Z,8.97
2023-02-07T13:15:53.842Z,7.30
2023-02-07T13:18:24.535Z,8.07
2023-02-07T13:21:16.545Z,7.17
2023-02-07T13:23:48.360Z,9.35
2023-02-07T13:26:20.432Z,6.27
2023-02-07T13:29:01.395Z,6.82
2023-02-07T13:31:46.798Z,9.50
2023-02-07T13:34:22.922Z,7.87
2023-02-07T13:36:53.017Z,8.13
2023-02-07T13:39:42.042Z,8.00
2023-02-07T13:42:22.346Z,6.38
2023-02-07T13:44:53.026Z,7.10
2023-02-07T13:47:51.706Z,7.37
2023-02-07T13:50:41.351Z,7.97
2023-02-07T13:53:18.059Z,7.57
2023-02-07T13:55:48.260Z,7.30
2023-02-07T13:58:52.917Z,6.07
2023-02-07T14:01:25.140Z,7.17
2023-02-07T14:04:06.104Z,7.85
2023-02-07T14:06:42.823Z,8.60
2023-02-07T14:09:35.359Z,8.50
2023-02-07T14:12:16.374Z,7.60
2023-02-07T14:14:53.892Z,6.70
2023-02-07T14:17:29.233Z,7.90
2023-02-07T14:19:58.380Z,9.17
2023-02-07T14:22:28.935Z,10.80
2023-02-07T14:24:59.678Z,10.13
2023-02-07T14:27:31.906Z,12.95
2023-02-07T14:30:28.682Z,10.25
2023-02-07T14:33:22.304Z,10.32
2023-02-07T14:36:13.084Z,10.93
2023-02-07T14:38:43.202Z,7.28
2023-02-07T14:41:14.128Z,10.07
2023-02-07T14:43:44.197Z,7.50
2023-02-07T14:46:17.510Z,7.77
2023-02-07T14:48:57.258Z,8.95
2023-02-07T14:51:40.474Z,9.07
2023-02-07T14:54:25.359Z,9.43
2023-02-07T14:57:07.901Z,6.18
2023-02-07T14:59:59.782Z,8.27
2023-02-07T15:02:44.077Z,6.90
2023-02-07T15:05:26.426Z,6.93
2023-02-07T15:08:16.642Z,7.70
2023-02-07T15:11:08.181Z,11.27
2023-02-07T15:13:46.096Z,10.27
2023-02-07T15:16:18.909Z,86.90
2023-02-07T15:19:21.954Z,81.72
2023-02-07T15:21:50.013Z,19.73
2023-02-07T15:24:37.107Z,46.97
2023-02-07T15:27:23.657Z,19.13
2023-02-07T15:30:03.744Z,24.50
2023-02-07T15:32:35.168Z,12.33
2023-02-07T15:35:24.340Z,10.10
2023-02-07T15:37:52.000Z,15.33
2023-02-07T15:40:24.396Z,10.70
2023-02-07T15:42:56.478Z,22.80
2023-02-07T15:45:26.677Z,18.00
2023-02-07T15:48:00.727Z,10.60
2023-02-07T15:50:30.680Z,7.20
2023-02-07T15:53:02.242Z,8.60
2023-02-07T15:55:38.370Z,8.30
2023-02-07T15:58:06.300Z,7.40
2023-02-07T16:00:40.393Z,12.37
2023-02-07T16:03:16.538Z,12.90
2023-02-07T16:05:44.806Z,17.03
2023-02-07T16:08:38.125Z,16.97
2023-02-07T16:14:14.136Z,16.17
2023-02-07T16:16:51.062Z,14.13
2023-02-07T16:19:30.466Z,12.27
2023-02-07T16:22:26.622Z,13.93
2023-02-07T16:24:54.580Z,8.67
2023-02-07T16:27:27.467Z,11.93
2023-02-07T16:29:56.596Z,14.00
2023-02-07T16:32:28.552Z,12.53
2023-02-07T16:34:59.920Z,18.58
2023-02-07T16:37:28.764Z,17.00
2023-02-07T16:39:56.558Z,11.40
2023-02-07T16:42:24.392Z,10.67
2023-02-07T16:44:52.678Z,9.20
2023-02-07T16:47:21.582Z,10.23
2023-02-07T16:49:49.684Z,11.00
2023-02-07T16:52:18.881Z,10.07
2023-02-07T16:54:47.177Z,9.87
2023-02-07T16:57:15.391Z,13.17
2023-02-07T16:59:43.056Z,13.60
2023-02-07T17:02:16.678Z,11.83
2023-02-07T17:04:44.464Z,9.70
2023-02-07T17:07:12.533Z,13.83
2023-02-07T17:09:40.229Z,18.60
2023-02-07T17:12:09.427Z,15.53
2023-02-07T17:14:38.757Z,24.07
2023-02-07T17:17:06.858Z,16.33
2023-02-07T17:19:36.070Z,14.93
2023-02-07T17:22:04.976Z,17.23
2023-02-07T17:24:32.865Z,20.70
2023-02-07T17:27:00.996Z,14.73
2023-02-07T17:29:30.053Z,17.90
2023-02-07T17:31:59.558Z,15.17
2023-02-07T17:34:27.624Z,17.63
2023-02-07T17:36:56.454Z,19.97
2023-02-07T17:39:24.948Z,15.00
2023-02-07T17:41:54.273Z,14.57
2023-02-07T17:44:27.544Z,12.97
2023-02-07T17:46:56.563Z,12.47
2023-02-07T17:49:25.204Z,10.27
2023-02-07T17:51:53.210Z,10.67
2023-02-07T17:54:23.320Z,11.10
2023-02-07T17:56:51.729Z,8.73
2023-02-07T17:59:24.871Z,12.53
2023-02-07T18:01:54.424Z,10.00
2023-02-07T18:04:24.142Z,8.40
2023-02-07T18:06:52.982Z,10.90
2023-02-07T18:09:22.109Z,12.50
2023-02-07T18:11:51.177Z,11.40
2023-02-07T18:14:19.268Z,11.13
2023-02-07T18:16:47.466Z,13.17
2023-02-07T18:19:18.323Z,12.73
2023-02-07T18:21:46.933Z,14.00
2023-02-07T18:24:15.875Z,14.10
2023-02-07T18:26:46.977Z,11.00
2023-02-07T18:29:15.917Z,10.90
2023-02-07T18:31:45.391Z,8.47
2023-02-07T18:34:15.939Z,10.03
2023-02-07T18:36:44.713Z,7.90
2023-02-07T18:39:14.388Z,8.13
2023-02-07T18:41:43.557Z,10.87
2023-02-07T18:44:12.033Z,16.53
2023-02-07T18:46:41.910Z,15.90
2023-02-07T18:49:15.042Z,17.13
2023-02-07T18:51:44.820Z,19.70
2023-02-07T18:54:13.349Z,19.90
2023-02-07T18:56:42.467Z,21.03
2023-02-07T18:59:12.800Z,17.83
2023-02-07T19:01:41.600Z,17.57
2023-02-07T19:04:10.761Z,24.33
2023-02-07T19:06:40.109Z,19.70
2023-02-07T19:09:12.434Z,18.73
2023-02-07T19:11:41.414Z,16.10
2023-02-07T19:14:24.156Z,16.60
2023-02-07T19:16:54.840Z,8.63
2023-02-07T19:19:30.024Z,10.90
2023-02-07T19:22:01.826Z,10.97
2023-02-07T19:24:30.129Z,18.93
2023-02-07T19:27:00.675Z,19.10
2023-02-07T19:29:30.853Z,18.90
2023-02-07T19:32:02.358Z,18.63
2023-02-07T19:34:32.056Z,17.33
2023-02-07T19:37:00.781Z,15.67
2023-02-07T19:39:29.866Z,20.87
2023-02-07T19:42:00.934Z,17.73
2023-02-07T19:44:30.021Z,18.53
2023-02-07T19:47:00.116Z,12.73
2023-02-07T19:49:30.502Z,10.97
2023-02-07T19:51:59.066Z,12.93
2023-02-07T19:54:28.998Z,8.00
2023-02-07T19:57:00.052Z,8.33
2023-02-07T19:59:28.873Z,8.30
2023-02-07T20:01:58.036Z,9.73
2023-02-07T20:04:27.270Z,8.50
2023-02-07T20:06:57.678Z,8.37
2023-02-07T20:09:26.381Z,7.27
2023-02-07T20:11:55.609Z,7.70
2023-02-07T20:14:27.015Z,7.67
2023-02-07T20:16:55.860Z,10.33
2023-02-07T20:19:27.696Z,8.23
2023-02-07T20:21:55.889Z,7.37
2023-02-07T20:24:24.746Z,7.43
2023-02-07T20:26:55.677Z,9.17
2023-02-07T20:29:25.064Z,7.63
2023-02-07T20:31:54.896Z,8.93
2023-02-07T20:34:24.416Z,11.37
2023-02-07T20:36:53.487Z,13.47
2023-02-07T20:39:23.280Z,12.57
2023-02-07T20:41:54.603Z,7.67
2023-02-07T20:44:27.068Z,7.40
2023-02-07T20:46:57.839Z,13.60
2023-02-07T20:49:28.928Z,18.00
2023-02-07T20:52:00.047Z,16.17
2023-02-07T20:54:30.349Z,18.30
2023-02-07T20:56:59.025Z,17.50
2023-02-07T20:59:30.392Z,15.67
2023-02-07T21:01:59.329Z,17.93
2023-02-07T21:04:29.328Z,18.27
2023-02-07T21:06:58.646Z,18.50
2023-02-07T21:09:27.719Z,13.77
2023-02-07T21:11:56.826Z,15.33
2023-02-07T21:14:28.323Z,13.50
2023-02-07T21:17:01.664Z,8.93
2023-02-07T21:19:29.764Z,6.73
2023-02-07T21:21:57.802Z,6.43
2023-02-07T21:24:26.662Z,6.33
2023-02-07T21:26:55.877Z,6.73
2023-02-07T21:29:25.048Z,5.90
2023-02-07T21:31:52.905Z,6.33
2023-02-07T21:34:22.336Z,8.60
2023-02-07T21:36:51.218Z,4.97
2023-02-07T21:39:19.881Z,5.73
2023-02-07T21:41:48.225Z,6.33
2023-02-07T21:44:16.592Z,7.77
2023-02-07T21:46:48.535Z,5.67
2023-02-07T21:49:17.972Z,9.17
2023-02-07T21:51:48.225Z,6.97
2023-02-07T21:54:16.677Z,7.13
2023-02-07T21:56:44.798Z,6.33
2023-02-07T21:59:14.811Z,9.90
2023-02-07T22:01:43.302Z,6.93
2023-02-07T22:04:11.469Z,6.43
2023-02-07T22:06:42.365Z,7.47
2023-02-07T22:09:13.490Z,8.77
2023-02-07T22:11:42.057Z,9.63
2023-02-07T22:14:14.716Z,12.93
2023-02-07T22:16:42.741Z,13.50
2023-02-07T22:19:13.136Z,15.13
2023-02-07T22:21:40.836Z,17.83
2023-02-07T22:24:11.811Z,12.87
2023-02-07T22:26:39.743Z,11.93
2023-02-07T22:29:08.213Z,10.23
2023-02-07T22:31:39.092Z,9.93
2023-02-07T22:34:11.522Z,6.83
2023-02-07T22:36:43.098Z,8.32
2023-02-07T22:39:13.239Z,5.17
2023-02-07T22:41:40.839Z,5.17
2023-02-07T22:44:08.638Z,6.67
2023-02-07T22:46:36.436Z,6.33
2023-02-07T22:49:04.149Z,6.20
2023-02-07T22:51:37.346Z,7.03
2023-02-07T22:54:08.432Z,15.27
2023-02-07T22:56:37.930Z,16.53
2023-02-07T22:59:06.339Z,14.03
2023-02-07T23:01:37.083Z,14.73
2023-02-07T23:04:07.370Z,8.53
2023-02-07T23:06:35.116Z,6.77
2023-02-07T23:09:05.277Z,5.77
2023-02-07T23:11:33.700Z,4.97
2023-02-07T23:14:02.056Z,6.70
2023-02-07T23:16:31.346Z,7.60
2023-02-07T23:19:06.499Z,5.40
2023-02-07T23:21:34.908Z,3.63
2023-02-07T23:24:04.649Z,3.90
2023-02-07T23:26:32.778Z,7.57
2023-02-07T23:29:00.402Z,5.23
2023-02-07T23:31:28.142Z,6.83
2023-02-07T23:33:55.842Z,4.83
2023-02-07T23:36:23.470Z,4.20
2023-02-07T23:38:51.826Z,3.93
2023-02-07T23:41:19.788Z,3.60
2023-02-07T23:43:47.422Z,3.53
2023-02-07T23:46:16.382Z,3.20
2023-02-07T23:48:44.385Z,2.87
2023-02-07T23:51:13.471Z,3.73
2023-02-07T23:53:42.264Z,3.50
2023-02-07T23:56:13.515Z,2.97
2023-02-07T23:58:41.398Z,3.23
